This is the latest recevied weather packets stored in our database for station/object KD4UFD. If no packets are shown the sender has not sent any weather packets the latest 10 day(s).
| Time | Temp. | Humidity | Pressure | Rain* | Wind** | Luminosity | Snow |
|---|---|---|---|---|---|---|---|
| 1777986636 | 17.78° C | 68% | 1014.7 hPa | 0 mm | - | 249 W/m² | - |
| 1777986333 | 17.78° C | 68% | 1014.8 hPa | 0 mm | - | 210 W/m² | - |
| 1777986032 | 17.22° C | 71% | 1014.8 hPa | 0 mm | - | 227 W/m² | - |
| 1777985728 | 17.22° C | 72% | 1014.6 hPa | 0 mm | - | 217 W/m² | - |
| 1777985425 | 16.67° C | 73% | 1014.7 hPa | 0 mm | - | 235 W/m² | - |
| 1777985121 | 16.11° C | 76% | 1014.7 hPa | 0 mm | - | 225 W/m² | - |
| 1777984818 | 16.11° C | 75% | 1014.5 hPa | 0 mm | - | 189 W/m² | - |
| 1777984514 | 16.11° C | 74% | 1014.4 hPa | 0 mm | - | 148 W/m² | - |
| 1777984210 | 15.56° C | 77% | 1014.5 hPa | 0 mm | - | 123 W/m² | - |
| 1777983908 | 15° C | 80% | 1014.4 hPa | 0 mm | - | 101 W/m² | - |
| 1777983604 | 13.89° C | 80% | 1014.4 hPa | 0 mm | - | 167 W/m² | - |
| 1777983301 | 13.89° C | 82% | 1014.3 hPa | 0 mm | - | 166 W/m² | - |
| 1777982997 | 12.78° C | 85% | 1014.3 hPa | 0 mm | - | 153 W/m² | - |
| 1777982694 | 12.78° C | 85% | 1014.5 hPa | 0 mm | - | 100 W/m² | - |
| 1777982393 | 12.22° C | 87% | 1014.2 hPa | 0 mm | - | 90 W/m² | - |
| 1777982089 | 11.67° C | 89% | 1014.3 hPa | 0 mm | - | 69 W/m² | - |
| 1777981788 | 11.11° C | 91% | 1014.1 hPa | 0 mm | - | 54 W/m² | - |
| 1777981483 | 11.11° C | 92% | 1014 hPa | 0 mm | - | 49 W/m² | - |
| 1777981180 | 10.56° C | 93% | 1014.2 hPa | 0 mm | - | 45 W/m² | - |
| 1777980876 | 10° C | 93% | 1014.2 hPa | 0 mm | - | 36 W/m² | - |
| 1777980572 | 10° C | 93% | 1014.1 hPa | 0 mm | - | 31 W/m² | - |
| 1777980270 | 9.44° C | 93% | 1013.7 hPa | 0 mm | - | 27 W/m² | - |
| 1777979966 | 9.44° C | 93% | 1014 hPa | 0 mm | - | 23 W/m² | - |
| 1777979661 | 9.44° C | 92% | 1013.7 hPa | 0 mm | - | 20 W/m² | - |
| 1777979357 | 8.89° C | 92% | 1013.8 hPa | 0 mm | - | 19 W/m² | - |
* Rain latest hour (hover to see other rain measurements)
** Current wind speed in m/s (hover to see current wind gust speed)